Time;durP1;ratioP1;P1;durP2;ratioP2;P2;SDS_P1;SDS_P2;PMS_P1;PMS_P2;Temp;Humidity;BMP_temperature;BMP_pressure;BME280_temperature;BME280_humidity;BME280_pressure;Samples;Min_cycle;Max_cycle;Signal;HPM_P1;HPM_P2
2023/03/28 00:01:20;;;;;;;12.20;4.07;;;0.60;99.90;;;;;;5057329;28;20459;-63
2023/03/28 00:03:48;;;;;;;14.10;4.30;;;0.60;99.90;;;;;;5057957;28;20748;-63
2023/03/28 00:06:17;;;;;;;8.10;4.07;;;0.50;99.90;;;;;;5057812;28;20453;-64
2023/03/28 00:08:46;;;;;;;8.80;4.40;;;0.40;99.90;;;;;;5057739;28;20455;-64
2023/03/28 00:11:18;;;;;;;8.97;4.47;;;0.40;99.90;;;;;;5055305;28;20563;-64
2023/03/28 00:13:46;;;;;;;7.57;4.10;;;0.40;99.90;;;;;;5057693;28;20479;-64
2023/03/28 00:16:14;;;;;;;10.87;4.63;;;0.30;99.90;;;;;;5054660;28;20820;-64
2023/03/28 00:18:42;;;;;;;11.77;4.47;;;0.30;99.90;;;;;;5057209;28;20473;-64
2023/03/28 00:21:23;;;;;;;17.07;5.40;;;0.40;99.90;;;;;;5057749;28;20468;-64
2023/03/28 00:23:51;;;;;;;11.70;5.50;;;0.40;99.90;;;;;;5058786;28;20484;-64
2023/03/28 00:26:20;;;;;;;10.00;4.90;;;0.40;99.90;;;;;;5058715;28;20559;-64
2023/03/28 00:28:48;;;;;;;11.23;5.00;;;0.40;99.90;;;;;;5057684;28;20469;-64
2023/03/28 00:31:15;;;;;;;10.73;4.30;;;0.40;99.90;;;;;;5058629;28;20497;-63
2023/03/28 00:33:42;;;;;;;10.13;4.47;;;0.40;99.90;;;;;;5058654;28;20466;-63
2023/03/28 00:36:13;;;;;;;7.73;4.37;;;0.30;99.90;;;;;;5058728;28;20465;-64
2023/03/28 00:38:40;;;;;;;7.63;4.77;;;0.30;99.90;;;;;;5058003;28;20501;-63
2023/03/28 00:41:08;;;;;;;13.87;5.40;;;0.30;99.90;;;;;;5058133;28;20470;-64
2023/03/28 00:43:41;;;;;;;10.87;4.83;;;0.30;99.90;;;;;;5056991;28;20470;-63
2023/03/28 00:46:15;;;;;;;10.83;5.80;;;0.20;99.90;;;;;;5058050;28;20471;-64
2023/03/28 00:48:49;;;;;;;9.10;4.50;;;0.20;99.90;;;;;;5058238;28;20568;-64
2023/03/28 00:51:18;;;;;;;11.27;4.73;;;0.10;99.90;;;;;;5058255;28;20497;-64
2023/03/28 00:53:46;;;;;;;8.23;5.07;;;0.10;99.90;;;;;;5057825;28;20464;-63
2023/03/28 00:56:16;;;;;;;12.27;6.13;;;0.10;99.90;;;;;;5057871;28;20469;-64
2023/03/28 00:58:47;;;;;;;12.27;5.80;;;0.10;99.90;;;;;;5057896;28;20883;-64
2023/03/28 01:01:16;;;;;;;9.17;4.40;;;0.10;99.90;;;;;;5057930;28;20767;-65
2023/03/28 01:03:46;;;;;;;6.90;4.03;;;0.10;99.90;;;;;;5057866;28;20472;-64
2023/03/28 01:06:15;;;;;;;15.60;4.47;;;0.10;99.90;;;;;;5057220;28;20480;-64
2023/03/28 01:08:46;;;;;;;6.37;4.00;;;0.10;99.90;;;;;;5056875;28;20476;-64
2023/03/28 01:11:14;;;;;;;7.13;4.23;;;0.10;99.90;;;;;;5057187;28;20953;-64
2023/03/28 01:13:48;;;;;;;15.47;4.30;;;0.00;99.90;;;;;;5057629;28;20466;-64
2023/03/28 01:16:16;;;;;;;6.43;3.70;;;0.10;99.90;;;;;;5058071;28;20564;-64
2023/03/28 01:18:50;;;;;;;8.77;4.43;;;0.10;99.90;;;;;;5057789;28;20872;-64
2023/03/28 01:21:41;;;;;;;8.60;4.50;;;0.20;1.00;;;;;;5057186;28;20464;-64
2023/03/28 01:24:43;;;;;;;9.43;3.83;;;0.20;1.00;;;;;;5057644;28;20469;-64
2023/03/28 01:27:16;;;;;;;11.20;4.37;;;0.20;1.00;;;;;;5056930;28;20551;-64
2023/03/28 01:30:27;;;;;;;13.70;4.47;;;0.20;1.00;;;;;;5056895;28;20485;-64
2023/03/28 01:33:28;;;;;;;15.63;5.13;;;0.20;1.00;;;;;;5057359;28;20468;-64
2023/03/28 01:36:24;;;;;;;10.63;4.97;;;0.30;1.00;;;;;;5057520;28;20459;-64
2023/03/28 01:38:59;;;;;;;9.60;4.80;;;0.30;1.00;;;;;;5056639;28;20445;-64
2023/03/28 01:41:35;;;;;;;14.93;5.03;;;0.30;1.00;;;;;;5057522;28;20454;-64
2023/03/28 01:44:10;;;;;;;10.80;4.47;;;0.20;1.00;;;;;;5059154;28;20513;-64
2023/03/28 01:46:40;;;;;;;12.70;4.90;;;0.20;1.00;;;;;;5061566;28;20470;-64
2023/03/28 01:49:10;;;;;;;11.53;4.93;;;0.10;1.00;;;;;;5061025;28;20505;-65
2023/03/28 01:51:49;;;;;;;15.43;5.70;;;0.10;1.00;;;;;;5059998;28;20573;-64
2023/03/28 01:54:29;;;;;;;11.57;4.80;;;0.00;1.00;;;;;;5061139;28;20717;-64
2023/03/28 01:57:03;;;;;;;9.30;4.80;;;0.00;1.00;;;;;;5060522;28;20436;-64
2023/03/28 01:59:35;;;;;;;10.50;6.57;;;0.00;1.00;;;;;;5061530;28;20465;-64
2023/03/28 02:02:09;;;;;;;14.47;5.50;;;0.00;1.00;;;;;;5061214;28;20468;-64
2023/03/28 02:04:38;;;;;;;8.57;4.70;;;0.00;1.00;;;;;;5060575;28;20560;-64
2023/03/28 02:07:07;;;;;;;11.17;5.57;;;-0.10;1.00;;;;;;5060638;28;20471;-64
2023/03/28 02:09:43;;;;;;;13.20;4.87;;;-0.10;1.00;;;;;;5060788;28;20851;-64
2023/03/28 02:12:14;;;;;;;11.80;5.17;;;-0.10;1.00;;;;;;5060074;28;20836;-64
2023/03/28 02:14:44;;;;;;;10.80;5.17;;;-0.10;1.00;;;;;;5057125;28;20456;-64
2023/03/28 02:17:15;;;;;;;10.60;5.47;;;-0.20;1.00;;;;;;5059421;28;20466;-64
2023/03/28 02:19:47;;;;;;;9.67;5.20;;;-0.10;1.00;;;;;;5061104;28;20521;-64
2023/03/28 02:22:21;;;;;;;9.30;4.60;;;-0.20;1.00;;;;;;5061277;28;20766;-64
2023/03/28 02:24:50;;;;;;;8.50;4.50;;;-0.30;1.00;;;;;;5060849;28;20881;-64
2023/03/28 02:27:21;;;;;;;11.43;5.03;;;-0.40;1.00;;;;;;5059521;28;20439;-64
2023/03/28 02:29:49;;;;;;;15.23;4.50;;;-0.50;1.00;;;;;;5060070;28;20528;-64
2023/03/28 02:32:20;;;;;;;7.97;4.80;;;-0.50;1.00;;;;;;5060422;28;20478;-64
2023/03/28 02:34:48;;;;;;;15.87;5.63;;;-0.60;1.00;;;;;;5057697;28;20566;-64
2023/03/28 02:37:28;;;;;;;8.93;5.00;;;-0.60;1.00;;;;;;5060185;28;20445;-64
2023/03/28 02:40:09;;;;;;;10.70;5.27;;;-0.60;1.00;;;;;;5060184;28;20461;-64
2023/03/28 02:43:09;;;;;;;12.07;5.50;;;-0.60;1.00;;;;;;5059346;28;20438;-64
2023/03/28 02:46:00;;;;;;;15.00;6.37;;;-0.70;1.00;;;;;;5039803;28;20571;-64
2023/03/28 02:48:40;;;;;;;11.57;4.80;;;-0.80;1.00;;;;;;5053467;28;20520;-64
2023/03/28 02:51:16;;;;;;;10.10;5.83;;;-0.80;1.00;;;;;;5060006;28;20519;-64
2023/03/28 02:53:52;;;;;;;12.10;6.20;;;-0.80;1.00;;;;;;5059728;28;20566;-63
2023/03/28 02:56:30;;;;;;;14.07;5.50;;;-0.70;1.00;;;;;;5058564;28;20506;-64
2023/03/28 02:59:03;;;;;;;11.67;5.73;;;-0.80;1.00;;;;;;5059516;28;20466;-64
2023/03/28 03:01:30;;;;;;;9.10;6.03;;;-0.70;1.00;;;;;;5059989;28;20802;-63
2023/03/28 03:03:59;;;;;;;12.97;6.00;;;-0.70;1.00;;;;;;5059115;28;20785;-63
2023/03/28 03:06:26;;;;;;;14.07;6.30;;;-0.70;1.00;;;;;;5059702;28;20492;-63
2023/03/28 03:08:54;;;;;;;11.20;5.80;;;-0.70;1.00;;;;;;5059189;28;20551;-64
2023/03/28 03:11:23;;;;;;;10.00;6.60;;;-0.80;1.00;;;;;;5059244;28;21007;-63
2023/03/28 03:13:51;;;;;;;10.67;6.40;;;-0.90;1.00;;;;;;5059273;28;20468;-63
2023/03/28 03:16:18;;;;;;;12.67;7.03;;;-0.90;1.00;;;;;;5059330;28;20524;-63
2023/03/28 03:18:45;;;;;;;11.27;6.13;;;-1.00;1.00;;;;;;5059335;28;20468;-63
2023/03/28 03:21:13;;;;;;;14.43;7.20;;;-1.00;1.00;;;;;;5059018;28;20928;-63
2023/03/28 03:23:40;;;;;;;10.77;6.10;;;-1.00;1.00;;;;;;5058072;28;20437;-63
2023/03/28 03:26:07;;;;;;;10.20;5.73;;;-1.00;1.00;;;;;;5059397;28;20900;-63
2023/03/28 03:28:36;;;;;;;11.87;6.57;;;-1.10;1.00;;;;;;5058351;28;20539;-63
2023/03/28 03:31:04;;;;;;;10.77;6.00;;;-1.10;1.00;;;;;;5058878;28;20776;-63
2023/03/28 03:33:31;;;;;;;10.20;6.00;;;-1.10;1.00;;;;;;5058766;28;20462;-63
2023/03/28 03:35:58;;;;;;;12.80;5.70;;;-1.10;1.00;;;;;;5059179;28;20463;-62
2023/03/28 03:38:26;;;;;;;10.80;6.10;;;-1.10;1.00;;;;;;5058996;28;20554;-62
2023/03/28 03:40:53;;;;;;;10.80;6.30;;;-1.20;1.00;;;;;;5058462;28;20462;-63
2023/03/28 03:43:20;;;;;;;16.47;6.87;;;-1.30;1.00;;;;;;5058593;28;20466;-63
2023/03/28 03:45:49;;;;;;;11.87;7.03;;;-1.20;1.00;;;;;;5058648;28;20438;-63
2023/03/28 03:48:17;;;;;;;11.03;6.90;;;-1.30;1.00;;;;;;5058713;28;20462;-63
2023/03/28 03:50:44;;;;;;;10.90;6.60;;;-1.30;1.00;;;;;;5058497;28;20927;-62
2023/03/28 03:53:11;;;;;;;11.20;6.30;;;-1.20;1.00;;;;;;5058896;28;20465;-62
2023/03/28 03:55:39;;;;;;;10.13;6.17;;;-1.20;1.00;;;;;;5058294;28;20463;-63
2023/03/28 03:58:07;;;;;;;9.10;5.63;;;-1.30;1.00;;;;;;5058380;28;20468;-63
2023/03/28 04:00:36;;;;;;;15.50;6.60;;;-1.30;1.00;;;;;;5057807;28;20461;-63
2023/03/28 04:03:05;;;;;;;9.03;5.90;;;-1.30;1.00;;;;;;5057427;28;20473;-63
2023/03/28 04:05:32;;;;;;;14.00;6.33;;;-1.40;1.00;;;;;;5057085;28;20812;-63
2023/03/28 04:08:00;;;;;;;15.80;6.10;;;-1.40;1.00;;;;;;5057340;28;20464;-62
2023/03/28 04:10:27;;;;;;;8.73;5.70;;;-1.50;1.00;;;;;;5057685;28;20463;-62
2023/03/28 04:12:55;;;;;;;13.13;6.10;;;-1.30;1.00;;;;;;5057607;28;20502;-62
2023/03/28 04:15:22;;;;;;;17.90;5.90;;;-1.30;1.00;;;;;;5057162;28;20473;-63
2023/03/28 04:17:51;;;;;;;12.40;6.50;;;-1.30;1.00;;;;;;5057712;28;20740;-63
2023/03/28 04:20:20;;;;;;;9.90;6.47;;;-1.30;1.70;;;;;;5057576;28;20489;-63
2023/03/28 04:22:47;;;;;;;10.30;6.17;;;-1.30;44.70;;;;;;5057104;28;20463;-63
2023/03/28 04:25:16;;;;;;;11.60;7.13;;;-1.20;41.00;;;;;;5057014;28;20748;-63
2023/03/28 04:27:47;;;;;;;11.30;7.63;;;-1.30;16.00;;;;;;5056626;28;20821;-63
2023/03/28 04:30:16;;;;;;;13.77;6.60;;;-1.40;1.00;;;;;;5056167;28;20548;-63
2023/03/28 04:32:43;;;;;;;10.63;6.00;;;-1.40;1.00;;;;;;5056820;28;20561;-63
2023/03/28 04:35:11;;;;;;;12.60;7.20;;;-1.50;1.00;;;;;;5057595;28;20482;-63
2023/03/28 04:37:40;;;;;;;12.77;7.27;;;-1.50;1.00;;;;;;5057458;28;20951;-62
2023/03/28 04:40:10;;;;;;;14.20;6.77;;;-1.50;1.00;;;;;;5056829;28;20785;-63
2023/03/28 04:42:37;;;;;;;12.47;7.07;;;-1.50;1.00;;;;;;5056407;28;20805;-63
2023/03/28 04:45:07;;;;;;;13.03;6.20;;;-1.50;1.00;;;;;;5056519;28;20499;-63
2023/03/28 04:47:36;;;;;;;15.27;8.20;;;-1.50;1.00;;;;;;5056477;28;20466;-62
2023/03/28 04:50:03;;;;;;;11.50;7.07;;;-1.50;1.00;;;;;;5056712;28;20532;-63
2023/03/28 04:52:30;;;;;;;13.37;7.17;;;-1.60;1.00;;;;;;5035978;28;20499;-62
2023/03/28 04:54:59;;;;;;;13.10;6.80;;;-1.60;1.00;;;;;;5036499;28;20906;-63
2023/03/28 04:57:26;;;;;;;12.80;6.60;;;-1.60;16.60;;;;;;5036388;28;20494;-63
2023/03/28 04:59:54;;;;;;;11.27;7.37;;;-1.60;10.00;;;;;;5035634;28;20469;-62
2023/03/28 05:02:22;;;;;;;15.20;8.27;;;-1.60;30.30;;;;;;5052644;28;20462;-63
2023/03/28 05:04:49;;;;;;;15.60;10.03;;;-1.60;35.40;;;;;;5054943;28;20469;-62
2023/03/28 05:07:16;;;;;;;16.70;8.27;;;-1.60;15.20;;;;;;5053644;28;20750;-62
2023/03/28 05:09:44;;;;;;;11.00;6.97;;;-1.60;1.00;;;;;;5053831;28;20457;-62
2023/03/28 05:12:12;;;;;;;13.60;8.63;;;-1.60;1.00;;;;;;5053788;28;21001;-63
2023/03/28 05:14:40;;;;;;;15.37;7.47;;;-1.60;8.60;;;;;;5055140;28;20479;-63
2023/03/28 05:17:07;;;;;;;11.80;7.07;;;-1.50;6.20;;;;;;5055983;28;20468;-63
2023/03/28 05:19:35;;;;;;;12.37;7.60;;;-1.50;1.00;;;;;;5060241;28;20462;-63
2023/03/28 05:22:02;;;;;;;14.03;8.43;;;-1.60;1.00;;;;;;5061826;28;20464;-63
2023/03/28 05:24:29;;;;;;;15.47;8.10;;;-1.50;1.00;;;;;;5061727;28;20772;-63
2023/03/28 05:26:56;;;;;;;14.47;8.53;;;-1.40;1.00;;;;;;5055992;28;20890;-64
2023/03/28 05:29:25;;;;;;;19.70;8.20;;;-1.40;1.00;;;;;;5058953;28;20974;-64
2023/03/28 05:31:52;;;;;;;12.67;8.80;;;-1.30;1.00;;;;;;5057667;28;21085;-63
2023/03/28 05:34:20;;;;;;;16.07;8.57;;;-1.20;1.00;;;;;;5056235;28;20564;-63
2023/03/28 05:36:47;;;;;;;13.33;8.83;;;-1.20;1.00;;;;;;5057723;28;20782;-64
2023/03/28 05:39:14;;;;;;;14.50;8.50;;;-1.10;1.00;;;;;;5058117;28;20464;-62
2023/03/28 05:41:41;;;;;;;15.23;9.43;;;-1.00;1.00;;;;;;5057314;28;20452;-62
2023/03/28 05:44:08;;;;;;;19.93;9.90;;;-1.10;1.00;;;;;;5058159;28;20463;-62
2023/03/28 05:46:37;;;;;;;16.07;8.50;;;-1.10;1.00;;;;;;5058644;28;20455;-62
2023/03/28 05:49:05;;;;;;;14.60;9.10;;;-1.00;1.00;;;;;;5058366;28;20458;-62
2023/03/28 05:51:32;;;;;;;15.03;8.90;;;-1.00;1.00;;;;;;5058080;28;20492;-62
2023/03/28 05:53:59;;;;;;;16.07;10.03;;;-0.90;1.00;;;;;;5055901;28;21091;-62
2023/03/28 05:56:26;;;;;;;12.17;7.63;;;-1.00;1.00;;;;;;5058193;28;20471;-62
2023/03/28 05:58:54;;;;;;;13.30;8.60;;;-1.00;1.00;;;;;;5059424;28;20516;-62
2023/03/28 06:01:22;;;;;;;15.10;9.50;;;-1.00;1.00;;;;;;5057685;28;20521;-62
2023/03/28 06:03:51;;;;;;;15.10;8.87;;;-1.00;1.00;;;;;;5058867;28;20840;-62
2023/03/28 06:06:19;;;;;;;18.00;9.43;;;-0.90;1.00;;;;;;5057742;28;20551;-62
2023/03/28 06:08:46;;;;;;;14.47;8.70;;;-0.80;1.00;;;;;;5058307;28;20940;-62
2023/03/28 06:11:14;;;;;;;17.10;10.63;;;-0.70;1.00;;;;;;5059345;28;20627;-62
2023/03/28 06:13:41;;;;;;;17.87;12.10;;;-0.50;1.00;;;;;;5059071;28;20760;-62
2023/03/28 06:16:09;;;;;;;18.53;11.17;;;-0.40;13.00;;;;;;5059746;28;20465;-62
2023/03/28 06:18:36;;;;;;;29.07;17.53;;;-0.30;32.70;;;;;;5060235;28;20465;-63
2023/03/28 06:21:06;;;;;;;41.67;20.77;;;-0.10;27.90;;;;;;5060500;28;20468;-63
2023/03/28 06:23:33;;;;;;;36.77;15.40;;;0.10;46.90;;;;;;5060799;28;20488;-63
2023/03/28 06:26:01;;;;;;;33.20;20.93;;;0.40;76.10;;;;;;5060899;28;20468;-62
2023/03/28 06:28:28;;;;;;;37.53;18.10;;;0.70;90.60;;;;;;5061212;28;20459;-63
2023/03/28 06:30:55;;;;;;;26.10;15.60;;;0.80;83.10;;;;;;5060170;28;20496;-62
2023/03/28 06:33:22;;;;;;;30.70;17.53;;;0.90;10.30;;;;;;5060843;28;20492;-63
2023/03/28 06:35:50;;;;;;;22.70;10.90;;;1.10;1.00;;;;;;5060855;28;20496;-63
2023/03/28 06:38:18;;;;;;;35.00;17.73;;;1.30;1.00;;;;;;5059673;28;20466;-63
2023/03/28 06:40:46;;;;;;;16.30;10.63;;;1.30;1.00;;;;;;5060893;28;20462;-63
2023/03/28 06:43:13;;;;;;;14.20;8.23;;;1.40;1.00;;;;;;5058001;28;20474;-63
2023/03/28 06:45:41;;;;;;;12.60;7.47;;;1.60;1.00;;;;;;5059627;28;21211;-63
2023/03/28 06:48:08;;;;;;;14.37;9.43;;;1.80;1.00;;;;;;5060817;28;20750;-63
2023/03/28 06:50:35;;;;;;;19.87;10.20;;;2.10;1.00;;;;;;5060092;28;20549;-64
2023/03/28 06:53:02;;;;;;;14.57;9.97;;;2.40;1.00;;;;;;5060095;28;20498;-63
2023/03/28 06:55:31;;;;;;;13.33;8.37;;;2.70;1.00;;;;;;5060553;28;20883;-64
2023/03/28 06:57:58;;;;;;;10.90;8.50;;;2.90;99.90;;;;;;5060646;28;20462;-63
2023/03/28 07:00:25;;;;;;;19.87;10.03;;;3.10;99.90;;;;;;5060608;28;20458;-63
2023/03/28 07:02:52;;;;;;;15.30;11.10;;;3.40;99.90;;;;;;5059942;28;20458;-62
2023/03/28 07:05:20;;;;;;;14.90;8.90;;;3.60;99.90;;;;;;5058291;28;20447;-61
2023/03/28 07:07:48;;;;;;;17.00;9.63;;;3.70;99.90;;;;;;5059905;28;20458;-61
2023/03/28 07:10:15;;;;;;;12.60;8.13;;;4.00;99.90;;;;;;5059032;28;20816;-60
2023/03/28 07:12:44;;;;;;;13.30;8.70;;;3.90;99.90;;;;;;5059371;28;20592;-61
2023/03/28 07:15:11;;;;;;;17.50;8.13;;;4.30;99.90;;;;;;5059882;28;20470;-62
2023/03/28 07:17:39;;;;;;;10.97;8.20;;;4.50;99.90;;;;;;5059242;28;20462;-63
2023/03/28 07:20:07;;;;;;;15.43;7.17;;;4.30;99.90;;;;;;5059781;28;20459;-63
2023/03/28 07:22:34;;;;;;;14.43;7.10;;;4.60;99.90;;;;;;5059400;28;20481;-63
2023/03/28 07:25:01;;;;;;;16.00;7.47;;;4.80;99.90;;;;;;5059199;28;20472;-62
2023/03/28 07:27:28;;;;;;;11.20;8.37;;;5.00;99.90;;;;;;5059500;28;20469;-63
2023/03/28 07:29:57;;;;;;;8.10;7.07;;;5.20;99.90;;;;;;5052821;28;20950;-63
2023/03/28 07:32:24;;;;;;;12.73;8.77;;;5.40;99.90;;;;;;5043197;28;20495;-64
2023/03/28 07:34:51;;;;;;;12.23;8.83;;;5.20;99.90;;;;;;5038847;28;20459;-64
2023/03/28 07:37:18;;;;;;;13.90;7.70;;;5.20;99.90;;;;;;5038713;28;20469;-63
2023/03/28 07:39:46;;;;;;;13.20;6.40;;;5.20;99.90;;;;;;5049079;28;20464;-63
2023/03/28 07:42:16;;;;;;;13.83;6.90;;;5.40;99.90;;;;;;5057943;28;20466;-63
2023/03/28 07:44:43;;;;;;;8.53;5.93;;;5.50;99.90;;;;;;5058545;28;20767;-63
2023/03/28 07:47:12;;;;;;;11.30;6.07;;;5.90;99.90;;;;;;5058890;28;20462;-64
2023/03/28 07:49:39;;;;;;;10.47;5.37;;;5.60;99.90;;;;;;5058727;28;20891;-64
2023/03/28 07:52:07;;;;;;;11.33;6.10;;;6.10;99.90;;;;;;5059267;28;20493;-65
2023/03/28 07:54:34;;;;;;;10.83;5.67;;;6.40;99.90;;;;;;5058181;28;20491;-64
2023/03/28 07:57:01;;;;;;;11.00;5.47;;;6.50;99.90;;;;;;5059115;28;20481;-64
2023/03/28 07:59:28;;;;;;;7.80;4.53;;;6.70;99.90;;;;;;5058115;28;20458;-64
2023/03/28 08:01:55;;;;;;;10.00;5.00;;;6.70;99.90;;;;;;5061363;28;20850;-64
2023/03/28 08:04:24;;;;;;;10.00;4.47;;;6.50;99.90;;;;;;5057835;28;20473;-64
2023/03/28 08:06:52;;;;;;;9.73;4.83;;;6.80;99.90;;;;;;5057575;28;20871;-64
2023/03/28 08:09:20;;;;;;;11.53;5.23;;;6.80;99.90;;;;;;5057746;28;20465;-63
2023/03/28 08:11:47;;;;;;;8.53;5.07;;;7.10;99.90;;;;;;5057849;28;20481;-63
2023/03/28 08:14:17;;;;;;;9.53;4.50;;;7.50;99.90;;;;;;5058153;28;20462;-63
2023/03/28 08:16:45;;;;;;;7.90;4.50;;;7.90;99.90;;;;;;5057700;28;20469;-63
2023/03/28 08:19:13;;;;;;;7.70;4.40;;;7.80;99.90;;;;;;5057742;28;20463;-63
2023/03/28 08:21:42;;;;;;;8.60;5.00;;;8.20;99.90;;;;;;5058105;28;20501;-64
2023/03/28 08:24:10;;;;;;;6.67;4.00;;;8.10;99.90;;;;;;5057942;28;20466;-65
2023/03/28 08:26:37;;;;;;;6.30;4.30;;;7.50;99.90;;;;;;5056854;28;20466;-65
2023/03/28 08:29:06;;;;;;;8.83;4.20;;;6.90;99.90;;;;;;5056911;28;20482;-65
2023/03/28 08:31:33;;;;;;;7.67;3.73;;;6.60;99.90;;;;;;5056662;28;20466;-64
2023/03/28 08:34:00;;;;;;;11.80;4.20;;;6.10;99.90;;;;;;5056974;28;20786;-65
2023/03/28 08:36:28;;;;;;;6.13;4.07;;;5.70;99.90;;;;;;5056471;28;20468;-63
2023/03/28 08:38:59;;;;;;;10.33;4.80;;;5.50;99.90;;;;;;5057652;28;20907;-65
2023/03/28 08:41:47;;;;;;;10.20;4.40;;;5.60;99.90;;;;;;5057523;28;20469;-65
2023/03/28 08:44:35;;;;;;;10.67;4.73;;;5.60;99.90;;;;;;5057586;28;20762;-65
2023/03/28 08:47:06;;;;;;;7.70;3.57;;;5.60;99.90;;;;;;5057297;28;20497;-63
2023/03/28 08:49:39;;;;;;;11.83;3.97;;;5.90;99.90;;;;;;5057321;28;20462;-63
2023/03/28 08:52:07;;;;;;;10.10;3.43;;;6.30;99.90;;;;;;5057021;28;20469;-63
2023/03/28 08:54:41;;;;;;;5.43;2.70;;;6.70;99.90;;;;;;5056967;28;20465;-64
2023/03/28 08:57:16;;;;;;;12.90;4.40;;;7.00;99.90;;;;;;5056426;28;20469;-63
2023/03/28 08:59:52;;;;;;;11.30;4.50;;;7.10;99.90;;;;;;5057712;28;20463;-63
2023/03/28 09:02:21;;;;;;;9.17;4.00;;;7.30;99.90;;;;;;5057117;28;20481;-63
2023/03/28 09:04:49;;;;;;;5.80;3.37;;;8.20;99.90;;;;;;5056848;28;20468;-62
2023/03/28 09:07:25;;;;;;;13.80;5.20;;;7.90;99.90;;;;;;5057062;28;20899;-61
2023/03/28 09:10:05;;;;;;;10.43;3.03;;;8.30;99.90;;;;;;5057377;28;20466;-63
2023/03/28 09:12:46;;;;;;;6.47;3.20;;;9.00;99.90;;;;;;5056682;28;20494;-63
2023/03/28 09:15:27;;;;;;;6.10;3.23;;;9.50;99.90;;;;;;5056284;28;20875;-64
2023/03/28 09:18:23;;;;;;;9.23;3.47;;;9.30;99.90;;;;;;5055796;28;20462;-61
2023/03/28 09:20:53;;;;;;;5.20;2.90;;;8.90;99.90;;;;;;5053871;28;20472;-63
2023/03/28 09:23:43;;;;;;;7.70;3.10;;;8.80;99.90;;;;;;5055584;28;21053;-62
2023/03/28 09:26:15;;;;;;;8.03;3.70;;;8.70;99.90;;;;;;5057314;28;20476;-64
2023/03/28 09:28:52;;;;;;;5.20;3.40;;;8.40;99.90;;;;;;5056757;28;20927;-63
2023/03/28 09:31:22;;;;;;;11.60;3.40;;;8.30;99.90;;;;;;5057102;28;20512;-61
2023/03/28 09:33:50;;;;;;;6.70;3.40;;;7.60;99.90;;;;;;5056849;28;20494;-62
2023/03/28 09:36:21;;;;;;;7.47;3.73;;;7.40;99.90;;;;;;5057139;28;20466;-60
2023/03/28 09:38:52;;;;;;;9.50;3.40;;;7.30;99.90;;;;;;5055139;28;20462;-61
2023/03/28 09:41:26;;;;;;;8.80;3.57;;;7.60;99.90;;;;;;5054896;28;20466;-62
2023/03/28 09:43:56;;;;;;;5.43;3.10;;;7.60;99.90;;;;;;5055301;28;20790;-61
2023/03/28 09:46:30;;;;;;;6.00;3.10;;;7.70;99.90;;;;;;5059393;28;20469;-56
2023/03/28 09:48:57;;;;;;;5.93;2.70;;;7.90;99.90;;;;;;5075330;28;20943;-62
2023/03/28 09:51:25;;;;;;;6.63;3.37;;;7.70;99.90;;;;;;5074501;28;20472;-61
2023/03/28 09:53:52;;;;;;;9.97;2.60;;;7.60;99.90;;;;;;5076654;28;20489;-61
2023/03/28 09:56:26;;;;;;;9.23;3.47;;;7.60;99.90;;;;;;5077004;28;20469;-62
2023/03/28 09:58:55;;;;;;;4.70;2.80;;;7.60;99.90;;;;;;5076750;28;20460;-62
2023/03/28 10:01:35;;;;;;;7.20;2.93;;;7.60;99.90;;;;;;5075340;28;20556;-61
2023/03/28 10:04:10;;;;;;;5.80;2.57;;;7.60;99.90;;;;;;5054140;28;20474;-59
2023/03/28 10:06:39;;;;;;;4.93;2.87;;;7.30;99.90;;;;;;5059317;28;20472;-61
2023/03/28 10:09:20;;;;;;;5.60;2.90;;;7.50;99.90;;;;;;5059693;28;20474;-61
2023/03/28 10:11:53;;;;;;;9.87;2.93;;;7.70;99.90;;;;;;5060459;28;20844;-62
2023/03/28 10:14:31;;;;;;;7.63;3.13;;;8.20;99.90;;;;;;5060635;28;20493;-59
2023/03/28 10:17:02;;;;;;;4.90;2.37;;;8.60;99.90;;;;;;5059680;28;20552;-57
2023/03/28 10:19:33;;;;;;;5.87;2.20;;;9.20;99.90;;;;;;5060245;28;20466;-59
2023/03/28 10:22:03;;;;;;;4.20;2.80;;;9.20;99.90;;;;;;5060534;28;20523;-59
2023/03/28 10:24:32;;;;;;;5.70;2.43;;;9.50;99.90;;;;;;5060407;28;20520;-60
2023/03/28 10:27:07;;;;;;;9.73;2.87;;;9.50;99.90;;;;;;5059716;28;20469;-57
2023/03/28 10:29:37;;;;;;;4.87;2.53;;;9.70;99.90;;;;;;5059560;28;20496;-61
2023/03/28 10:32:05;;;;;;;2.77;2.03;;;10.10;99.90;;;;;;5059184;28;20458;-59
2023/03/28 10:34:34;;;;;;;3.73;2.20;;;10.80;99.90;;;;;;5057752;28;20493;-61
2023/03/28 10:37:01;;;;;;;4.20;2.93;;;11.30;99.90;;;;;;5056875;28;20500;-58
2023/03/28 10:39:29;;;;;;;4.83;2.60;;;11.30;99.90;;;;;;5057461;28;20466;-60
2023/03/28 10:41:58;;;;;;;8.83;3.13;;;11.10;99.90;;;;;;5058005;28;20466;-58
2023/03/28 10:44:30;;;;;;;7.53;3.70;;;10.20;99.90;;;;;;5058150;28;20465;-60
2023/03/28 10:47:00;;;;;;;5.77;2.60;;;9.70;99.90;;;;;;5058220;28;20741;-61
2023/03/28 10:49:29;;;;;;;6.73;3.17;;;9.40;99.90;;;;;;5059586;28;20458;-60
2023/03/28 10:51:56;;;;;;;7.30;2.93;;;9.50;99.90;;;;;;5059471;28;20806;-59
2023/03/28 10:54:46;;;;;;;5.63;3.07;;;9.90;99.90;;;;;;5055279;28;21263;-61
2023/03/28 10:57:22;;;;;;;5.87;2.40;;;10.10;99.90;;;;;;5054580;28;20736;-61
2023/03/28 11:00:00;;;;;;;6.70;3.17;;;10.30;99.90;;;;;;5056096;28;20887;-59
2023/03/28 11:02:54;;;;;;;7.87;2.90;;;10.00;99.90;;;;;;5054202;28;20511;-59
2023/03/28 11:05:32;;;;;;;4.53;3.40;;;10.30;99.90;;;;;;5057274;28;20465;-61
2023/03/28 11:08:06;;;;;;;5.73;3.80;;;10.10;99.90;;;;;;5058548;28;20458;-59
2023/03/28 11:10:43;;;;;;;11.37;5.37;;;10.20;99.90;;;;;;5058267;28;20775;-59
2023/03/28 11:13:22;;;;;;;9.27;4.07;;;10.50;99.90;;;;;;5058596;28;20490;-59
2023/03/28 11:15:57;;;;;;;14.23;7.90;;;10.20;99.90;;;;;;5067850;28;20916;-58
2023/03/28 11:18:40;;;;;;;7.87;3.17;;;10.20;99.90;;;;;;5050939;28;20469;-59
2023/03/28 11:21:20;;;;;;;4.90;3.40;;;10.50;99.90;;;;;;5053679;28;20464;-59
2023/03/28 11:23:52;;;;;;;8.67;3.50;;;10.50;99.90;;;;;;5055155;28;20507;-57
2023/03/28 11:26:25;;;;;;;13.13;7.00;;;10.90;99.90;;;;;;5052657;28;20500;-59
2023/03/28 11:29:08;;;;;;;5.23;3.50;;;11.20;99.90;;;;;;5053897;28;20492;-60
2023/03/28 11:31:42;;;;;;;8.83;4.30;;;11.50;99.90;;;;;;5055625;28;20886;-59
2023/03/28 11:34:20;;;;;;;5.23;3.47;;;11.00;99.90;;;;;;5056583;28;20486;-59
2023/03/28 11:36:53;;;;;;;6.30;2.70;;;10.80;99.90;;;;;;5056508;28;20465;-59
2023/03/28 11:39:31;;;;;;;7.90;3.67;;;10.90;99.90;;;;;;5057733;28;20479;-59
2023/03/28 11:42:01;;;;;;;5.13;2.83;;;11.20;99.90;;;;;;5056594;28;20461;-56
2023/03/28 11:44:31;;;;;;;11.57;7.00;;;11.70;99.90;;;;;;5055840;28;20891;-58
2023/03/28 11:47:07;;;;;;;9.63;6.23;;;11.50;99.90;;;;;;5055480;28;20465;-59
2023/03/28 11:49:40;;;;;;;7.03;3.60;;;11.30;99.90;;;;;;5055610;28;20476;-58
2023/03/28 11:52:15;;;;;;;7.80;5.20;;;11.40;99.90;;;;;;5057062;28;20564;-57
2023/03/28 11:54:48;;;;;;;11.43;7.83;;;11.70;99.90;;;;;;5056656;28;20998;-59
2023/03/28 11:57:24;;;;;;;6.33;3.40;;;11.80;99.90;;;;;;5057801;28;20548;-57
2023/03/28 11:59:54;;;;;;;8.93;3.03;;;12.30;99.90;;;;;;5058390;28;20899;-59
2023/03/28 12:02:40;;;;;;;5.80;2.70;;;12.40;99.90;;;;;;5055033;28;20559;-59
2023/03/28 12:05:18;;;;;;;4.73;2.73;;;11.90;99.90;;;;;;5037766;28;20459;-59
2023/03/28 12:07:50;;;;;;;3.30;2.50;;;11.80;99.90;;;;;;5056946;28;20449;-59
2023/03/28 12:10:22;;;;;;;6.80;3.93;;;11.80;99.90;;;;;;5056691;28;20476;-56
2023/03/28 12:13:00;;;;;;;3.00;2.47;;;11.50;99.90;;;;;;5056612;28;20518;-59
2023/03/28 12:15:38;;;;;;;6.80;3.87;;;11.20;99.90;;;;;;5054366;28;20498;-59
2023/03/28 12:18:12;;;;;;;5.20;3.00;;;11.30;99.90;;;;;;5056138;28;20778;-59
2023/03/28 12:20:50;;;;;;;6.13;4.80;;;11.30;99.90;;;;;;5056091;28;20484;-59
2023/03/28 12:23:23;;;;;;;5.73;4.53;;;11.20;99.90;;;;;;5055254;28;20465;-55
2023/03/28 12:25:56;;;;;;;3.13;2.37;;;10.70;99.90;;;;;;5055564;28;20468;-57
2023/03/28 12:28:30;;;;;;;3.17;2.30;;;10.70;99.90;;;;;;5054430;28;20458;-57
2023/03/28 12:31:05;;;;;;;5.20;2.97;;;10.90;99.90;;;;;;5056015;28;20460;-57
2023/03/28 12:33:43;;;;;;;5.43;3.27;;;10.80;99.90;;;;;;5055941;28;20497;-57
2023/03/28 12:36:19;;;;;;;6.57;3.07;;;10.30;99.90;;;;;;5056004;28;20454;-58
2023/03/28 12:38:53;;;;;;;3.13;2.63;;;10.30;99.90;;;;;;5055874;28;20744;-59
2023/03/28 12:41:24;;;;;;;3.40;2.43;;;10.40;99.90;;;;;;5054652;28;20468;-53
2023/03/28 12:43:56;;;;;;;4.20;3.00;;;10.30;99.90;;;;;;5055092;28;20459;-56
2023/03/28 12:46:27;;;;;;;8.60;2.53;;;10.40;99.90;;;;;;5056163;28;20476;-58
2023/03/28 12:48:59;;;;;;;4.97;2.80;;;10.40;99.90;;;;;;5057036;28;20458;-59
2023/03/28 12:51:33;;;;;;;4.20;2.40;;;10.50;99.90;;;;;;5060631;28;20556;-61
2023/03/28 12:54:16;;;;;;;2.53;2.07;;;10.40;99.90;;;;;;5050809;28;20572;-59
2023/03/28 12:56:46;;;;;;;3.10;2.40;;;10.30;99.90;;;;;;5056872;28;20557;-61
2023/03/28 12:59:43;;;;;;;5.70;2.47;;;10.80;99.90;;;;;;5056925;28;20545;-56
2023/03/28 13:02:14;;;;;;;2.20;1.83;;;11.30;99.90;;;;;;5057310;28;20786;-60
2023/03/28 13:04:50;;;;;;;4.40;2.67;;;11.40;99.90;;;;;;5057383;28;20462;-59
2023/03/28 13:07:25;;;;;;;5.17;2.30;;;11.40;99.90;;;;;;5054767;28;20465;-61
2023/03/28 13:10:00;;;;;;;3.90;2.47;;;11.60;99.90;;;;;;5055639;28;20466;-60